Terminal Aerodrome Forecast
Issued by NWS

Home | Current Version | Previous Version | Text Only | Print | Product List | Glossary On
Versions: 1 2 3 4 5 6 7 8 9 10 11 12 13 14 15 16 17 18 19 20
000
FTUS41 KBTV 251135
TAFMSS
TAF
KMSS 251135Z 2512/2612 23006KT P6SM FEW250
     FM251300 23007KT P6SM BKN040
     FM251900 22012G18KT P6SM -SHRA OVC030
     FM252200 22011KT P6SM OVC025=

USA.gov is the U.S. government's official web portal to all federal, state and local government web resources and services.